sensor_id;sensor_type;location;lat;lon;timestamp;pressure;altitude;pressure_sealevel;temperature;humidity
62600;BME280;48671;48.922;2.346;2023-07-13T00:00:10;101513.44;;;24.38;37.72
62600;BME280;48671;48.922;2.346;2023-07-13T00:02:36;101511.88;;;24.36;37.69
62600;BME280;48671;48.922;2.346;2023-07-13T00:05:02;101509.94;;;24.38;38.08
62600;BME280;48671;48.922;2.346;2023-07-13T00:07:27;101511.50;;;24.40;37.90
62600;BME280;48671;48.922;2.346;2023-07-13T00:09:52;101509.44;;;24.44;37.88
62600;BME280;48671;48.922;2.346;2023-07-13T00:12:28;101510.34;;;24.54;37.68
62600;BME280;48671;48.922;2.346;2023-07-13T00:14:58;101520.28;;;24.52;37.96
62600;BME280;48671;48.922;2.346;2023-07-13T00:17:25;101514.25;;;24.50;37.79
62600;BME280;48671;48.922;2.346;2023-07-13T00:19:51;101521.13;;;24.52;37.71
62600;BME280;48671;48.922;2.346;2023-07-13T00:22:17;101518.00;;;24.47;37.78
62600;BME280;48671;48.922;2.346;2023-07-13T00:24:43;101515.13;;;24.39;38.11
62600;BME280;48671;48.922;2.346;2023-07-13T00:27:09;101518.75;;;24.38;37.84
62600;BME280;48671;48.922;2.346;2023-07-13T00:29:35;101517.34;;;24.34;38.46
62600;BME280;48671;48.922;2.346;2023-07-13T00:32:05;101512.13;;;24.33;38.29
62600;BME280;48671;48.922;2.346;2023-07-13T00:34:31;101519.53;;;24.29;38.23
62600;BME280;48671;48.922;2.346;2023-07-13T00:36:56;101519.09;;;24.24;38.59
62600;BME280;48671;48.922;2.346;2023-07-13T00:39:22;101517.38;;;24.23;38.61
62600;BME280;48671;48.922;2.346;2023-07-13T00:41:48;101526.91;;;24.25;38.49
62600;BME280;48671;48.922;2.346;2023-07-13T00:44:14;101518.00;;;24.26;38.67
62600;BME280;48671;48.922;2.346;2023-07-13T00:46:40;101526.81;;;24.27;39.00
62600;BME280;48671;48.922;2.346;2023-07-13T00:49:08;101527.56;;;24.18;39.04
62600;BME280;48671;48.922;2.346;2023-07-13T00:51:43;101530.81;;;24.21;39.04
62600;BME280;48671;48.922;2.346;2023-07-13T00:54:12;101530.09;;;24.19;39.21
62600;BME280;48671;48.922;2.346;2023-07-13T00:56:40;101533.13;;;24.15;39.14
62600;BME280;48671;48.922;2.346;2023-07-13T00:59:07;101516.13;;;24.06;39.07
62600;BME280;48671;48.922;2.346;2023-07-13T01:01:33;101533.25;;;24.13;39.31
62600;BME280;48671;48.922;2.346;2023-07-13T01:03:59;101525.09;;;24.05;39.21
62600;BME280;48671;48.922;2.346;2023-07-13T01:06:24;101535.13;;;24.01;39.39
62600;BME280;48671;48.922;2.346;2023-07-13T01:08:49;101535.00;;;24.03;39.15
62600;BME280;48671;48.922;2.346;2023-07-13T01:11:19;101532.34;;;24.03;39.45
62600;BME280;48671;48.922;2.346;2023-07-13T01:13:46;101544.69;;;24.04;39.22
62600;BME280;48671;48.922;2.346;2023-07-13T01:16:15;101539.84;;;23.98;38.95
62600;BME280;48671;48.922;2.346;2023-07-13T01:18:43;101536.88;;;23.91;39.10
62600;BME280;48671;48.922;2.346;2023-07-13T01:21:08;101544.84;;;23.91;39.54
62600;BME280;48671;48.922;2.346;2023-07-13T01:23:33;101547.50;;;23.91;39.45
62600;BME280;48671;48.922;2.346;2023-07-13T01:25:59;101546.66;;;23.91;39.27
62600;BME280;48671;48.922;2.346;2023-07-13T01:28:25;101539.63;;;23.90;39.22
62600;BME280;48671;48.922;2.346;2023-07-13T01:30:54;101551.09;;;23.90;39.40
62600;BME280;48671;48.922;2.346;2023-07-13T01:33:19;101536.53;;;23.85;39.30
62600;BME280;48671;48.922;2.346;2023-07-13T01:35:46;101542.19;;;23.91;39.40
62600;BME280;48671;48.922;2.346;2023-07-13T01:38:14;101548.00;;;23.85;40.25
62600;BME280;48671;48.922;2.346;2023-07-13T01:40:39;101544.84;;;23.80;40.04
62600;BME280;48671;48.922;2.346;2023-07-13T01:43:05;101547.75;;;23.77;40.43
62600;BME280;48671;48.922;2.346;2023-07-13T01:45:31;101554.06;;;23.76;39.39
62600;BME280;48671;48.922;2.346;2023-07-13T01:47:56;101555.13;;;23.73;40.21
62600;BME280;48671;48.922;2.346;2023-07-13T01:50:23;101552.72;;;23.70;40.49
62600;BME280;48671;48.922;2.346;2023-07-13T01:52:48;101544.75;;;23.70;40.41
62600;BME280;48671;48.922;2.346;2023-07-13T01:55:13;101543.91;;;23.70;40.21
62600;BME280;48671;48.922;2.346;2023-07-13T01:57:39;101545.63;;;23.71;40.39
62600;BME280;48671;48.922;2.346;2023-07-13T02:00:06;101553.69;;;23.69;39.96
62600;BME280;48671;48.922;2.346;2023-07-13T02:02:31;101547.16;;;23.62;39.91
62600;BME280;48671;48.922;2.346;2023-07-13T02:04:57;101551.75;;;23.60;40.16
62600;BME280;48671;48.922;2.346;2023-07-13T02:07:22;101554.91;;;23.54;40.28
62600;BME280;48671;48.922;2.346;2023-07-13T02:09:47;101566.50;;;23.53;40.11
62600;BME280;48671;48.922;2.346;2023-07-13T02:12:13;101562.28;;;23.50;40.59
62600;BME280;48671;48.922;2.346;2023-07-13T02:14:38;101563.09;;;23.51;40.36
62600;BME280;48671;48.922;2.346;2023-07-13T02:17:04;101551.66;;;23.50;39.88
62600;BME280;48671;48.922;2.346;2023-07-13T02:19:30;101559.84;;;23.47;40.47
62600;BME280;48671;48.922;2.346;2023-07-13T02:21:55;101558.91;;;23.37;40.49
62600;BME280;48671;48.922;2.346;2023-07-13T02:24:20;101554.31;;;23.28;39.67
62600;BME280;48671;48.922;2.346;2023-07-13T02:26:46;101565.91;;;23.27;39.94
62600;BME280;48671;48.922;2.346;2023-07-13T02:29:12;101557.22;;;23.25;40.67
62600;BME280;48671;48.922;2.346;2023-07-13T02:31:37;101566.88;;;23.26;40.54
62600;BME280;48671;48.922;2.346;2023-07-13T02:34:03;101554.22;;;23.29;39.95
62600;BME280;48671;48.922;2.346;2023-07-13T02:36:29;101548.41;;;23.24;40.71
62600;BME280;48671;48.922;2.346;2023-07-13T02:38:55;101554.06;;;23.31;40.40
62600;BME280;48671;48.922;2.346;2023-07-13T02:41:20;101551.06;;;23.35;39.95
62600;BME280;48671;48.922;2.346;2023-07-13T02:43:46;101548.19;;;23.39;40.19
62600;BME280;48671;48.922;2.346;2023-07-13T02:46:11;101553.72;;;23.47;40.18
62600;BME280;48671;48.922;2.346;2023-07-13T02:48:38;101564.09;;;23.50;40.54
62600;BME280;48671;48.922;2.346;2023-07-13T02:51:04;101563.25;;;23.49;40.41
62600;BME280;48671;48.922;2.346;2023-07-13T02:53:30;101564.56;;;23.44;40.52
62600;BME280;48671;48.922;2.346;2023-07-13T02:55:55;101554.91;;;23.31;40.02
62600;BME280;48671;48.922;2.346;2023-07-13T02:58:21;101559.03;;;23.24;40.60
62600;BME280;48671;48.922;2.346;2023-07-13T03:00:47;101562.53;;;23.25;40.88
62600;BME280;48671;48.922;2.346;2023-07-13T03:03:15;101560.25;;;23.20;40.88
62600;BME280;48671;48.922;2.346;2023-07-13T03:05:43;101562.28;;;23.17;40.81
62600;BME280;48671;48.922;2.346;2023-07-13T03:08:10;101568.44;;;23.06;40.89
62600;BME280;48671;48.922;2.346;2023-07-13T03:10:36;101561.19;;;22.97;40.67
62600;BME280;48671;48.922;2.346;2023-07-13T03:13:02;101562.28;;;22.94;40.73
62600;BME280;48671;48.922;2.346;2023-07-13T03:15:27;101568.69;;;23.03;41.21
62600;BME280;48671;48.922;2.346;2023-07-13T03:17:52;101567.72;;;23.04;40.41
62600;BME280;48671;48.922;2.346;2023-07-13T03:20:18;101554.81;;;22.99;40.78
62600;BME280;48671;48.922;2.346;2023-07-13T03:22:44;101571.34;;;23.03;40.39
62600;BME280;48671;48.922;2.346;2023-07-13T03:25:09;101559.25;;;22.99;40.45
62600;BME280;48671;48.922;2.346;2023-07-13T03:27:36;101574.72;;;23.05;40.47
62600;BME280;48671;48.922;2.346;2023-07-13T03:30:01;101570.84;;;22.98;40.20
62600;BME280;48671;48.922;2.346;2023-07-13T03:32:27;101582.28;;;22.98;40.93
62600;BME280;48671;48.922;2.346;2023-07-13T03:34:52;101579.47;;;22.88;41.12
62600;BME280;48671;48.922;2.346;2023-07-13T03:37:18;101580.59;;;22.86;40.97
62600;BME280;48671;48.922;2.346;2023-07-13T03:39:43;101578.88;;;22.85;40.97
62600;BME280;48671;48.922;2.346;2023-07-13T03:42:08;101590.56;;;22.82;41.18
62600;BME280;48671;48.922;2.346;2023-07-13T03:44:34;101584.50;;;22.69;41.01
62600;BME280;48671;48.922;2.346;2023-07-13T03:47:00;101583.06;;;22.65;40.71
62600;BME280;48671;48.922;2.346;2023-07-13T03:49:25;101588.34;;;22.65;41.05
62600;BME280;48671;48.922;2.346;2023-07-13T03:51:51;101589.31;;;22.64;40.76
62600;BME280;48671;48.922;2.346;2023-07-13T03:54:16;101587.50;;;22.64;41.45
62600;BME280;48671;48.922;2.346;2023-07-13T03:56:41;101594.63;;;22.64;41.56
62600;BME280;48671;48.922;2.346;2023-07-13T03:59:07;101584.72;;;22.66;40.82
62600;BME280;48671;48.922;2.346;2023-07-13T04:01:34;101592.69;;;22.66;41.77
62600;BME280;48671;48.922;2.346;2023-07-13T04:03:59;101590.31;;;22.63;41.42
62600;BME280;48671;48.922;2.346;2023-07-13T04:06:29;101602.97;;;22.71;42.21
62600;BME280;48671;48.922;2.346;2023-07-13T04:08:59;101604.88;;;22.68;41.52
62600;BME280;48671;48.922;2.346;2023-07-13T04:11:28;101607.75;;;22.65;42.35
62600;BME280;48671;48.922;2.346;2023-07-13T04:13:54;101604.63;;;22.60;42.27
62600;BME280;48671;48.922;2.346;2023-07-13T04:16:20;101603.19;;;22.56;42.56
62600;BME280;48671;48.922;2.346;2023-07-13T04:18:46;101616.91;;;22.61;42.56
62600;BME280;48671;48.922;2.346;2023-07-13T04:21:13;101617.06;;;22.60;42.86
62600;BME280;48671;48.922;2.346;2023-07-13T04:23:40;101614.50;;;22.58;42.56
62600;BME280;48671;48.922;2.346;2023-07-13T04:26:05;101612.44;;;22.51;42.60
62600;BME280;48671;48.922;2.346;2023-07-13T04:28:31;101619.41;;;22.52;42.93
62600;BME280;48671;48.922;2.346;2023-07-13T04:30:57;101612.81;;;22.57;42.73
62600;BME280;48671;48.922;2.346;2023-07-13T04:33:22;101628.38;;;22.62;42.73
62600;BME280;48671;48.922;2.346;2023-07-13T04:35:49;101629.13;;;22.64;43.19
62600;BME280;48671;48.922;2.346;2023-07-13T04:38:15;101629.72;;;22.67;43.10
62600;BME280;48671;48.922;2.346;2023-07-13T04:40:44;101637.47;;;22.71;43.03
62600;BME280;48671;48.922;2.346;2023-07-13T04:43:10;101628.03;;;22.66;42.78
62600;BME280;48671;48.922;2.346;2023-07-13T04:45:36;101627.31;;;22.64;43.19
62600;BME280;48671;48.922;2.346;2023-07-13T04:48:01;101628.97;;;22.65;43.28
62600;BME280;48671;48.922;2.346;2023-07-13T04:50:27;101630.78;;;22.65;42.71
62600;BME280;48671;48.922;2.346;2023-07-13T04:52:52;101623.91;;;22.62;43.09
62600;BME280;48671;48.922;2.346;2023-07-13T04:55:18;101620.31;;;22.63;42.91
62600;BME280;48671;48.922;2.346;2023-07-13T04:57:45;101625.84;;;22.60;43.48
62600;BME280;48671;48.922;2.346;2023-07-13T05:00:11;101623.66;;;22.54;43.48
62600;BME280;48671;48.922;2.346;2023-07-13T05:02:38;101629.06;;;22.53;43.36
62600;BME280;48671;48.922;2.346;2023-07-13T05:05:05;101640.63;;;22.52;44.37
62600;BME280;48671;48.922;2.346;2023-07-13T05:07:30;101625.91;;;22.48;43.52
62600;BME280;48671;48.922;2.346;2023-07-13T05:09:58;101628.22;;;22.52;43.60
62600;BME280;48671;48.922;2.346;2023-07-13T05:12:23;101617.59;;;22.52;44.40
62600;BME280;48671;48.922;2.346;2023-07-13T05:14:48;101628.97;;;22.54;44.09
62600;BME280;48671;48.922;2.346;2023-07-13T05:17:14;101623.66;;;22.54;43.55
62600;BME280;48671;48.922;2.346;2023-07-13T05:19:39;101627.75;;;22.58;44.06
62600;BME280;48671;48.922;2.346;2023-07-13T05:22:05;101629.81;;;22.55;45.25
62600;BME280;48671;48.922;2.346;2023-07-13T05:24:31;101633.03;;;22.47;45.04
62600;BME280;48671;48.922;2.346;2023-07-13T05:26:56;101637.38;;;22.48;44.57
62600;BME280;48671;48.922;2.346;2023-07-13T05:29:22;101641.38;;;22.54;44.82
62600;BME280;48671;48.922;2.346;2023-07-13T05:31:48;101635.56;;;22.49;44.35
62600;BME280;48671;48.922;2.346;2023-07-13T05:34:13;101637.97;;;22.52;44.64
62600;BME280;48671;48.922;2.346;2023-07-13T05:36:39;101644.66;;;22.57;44.59
62600;BME280;48671;48.922;2.346;2023-07-13T05:39:05;101647.41;;;22.56;44.45
62600;BME280;48671;48.922;2.346;2023-07-13T05:41:30;101640.75;;;22.50;45.35
62600;BME280;48671;48.922;2.346;2023-07-13T05:43:55;101647.53;;;22.54;45.04
62600;BME280;48671;48.922;2.346;2023-07-13T05:46:21;101655.03;;;22.60;44.53
62600;BME280;48671;48.922;2.346;2023-07-13T05:48:47;101653.31;;;22.59;44.44
62600;BME280;48671;48.922;2.346;2023-07-13T05:51:13;101644.88;;;22.54;44.61
62600;BME280;48671;48.922;2.346;2023-07-13T05:53:39;101661.41;;;22.58;44.23
62600;BME280;48671;48.922;2.346;2023-07-13T05:56:04;101655.75;;;22.62;45.01
62600;BME280;48671;48.922;2.346;2023-07-13T05:58:29;101661.66;;;22.66;44.28
62600;BME280;48671;48.922;2.346;2023-07-13T06:01:00;101658.16;;;22.65;45.07
62600;BME280;48671;48.922;2.346;2023-07-13T06:03:26;101666.63;;;22.71;45.00
62600;BME280;48671;48.922;2.346;2023-07-13T06:05:51;101646.72;;;22.65;44.54
62600;BME280;48671;48.922;2.346;2023-07-13T06:08:16;101661.09;;;22.74;44.17
62600;BME280;48671;48.922;2.346;2023-07-13T06:10:43;101671.88;;;22.83;44.78
62600;BME280;48671;48.922;2.346;2023-07-13T06:13:08;101668.63;;;22.91;44.38
62600;BME280;48671;48.922;2.346;2023-07-13T06:15:33;101670.56;;;22.89;43.92
62600;BME280;48671;48.922;2.346;2023-07-13T06:17:59;101683.59;;;22.92;44.25
62600;BME280;48671;48.922;2.346;2023-07-13T06:20:24;101681.19;;;22.89;44.06
62600;BME280;48671;48.922;2.346;2023-07-13T06:22:49;101674.28;;;22.86;44.65
62600;BME280;48671;48.922;2.346;2023-07-13T06:25:15;101693.47;;;22.90;44.28
62600;BME280;48671;48.922;2.346;2023-07-13T06:27:40;101693.47;;;22.90;43.83
62600;BME280;48671;48.922;2.346;2023-07-13T06:30:06;101677.56;;;22.90;44.43
62600;BME280;48671;48.922;2.346;2023-07-13T06:32:31;101688.69;;;22.95;43.93
62600;BME280;48671;48.922;2.346;2023-07-13T06:34:56;101685.09;;;22.96;44.36
62600;BME280;48671;48.922;2.346;2023-07-13T06:37:22;101687.16;;;23.04;44.34
62600;BME280;48671;48.922;2.346;2023-07-13T06:39:47;101688.75;;;23.06;44.12
62600;BME280;48671;48.922;2.346;2023-07-13T06:42:12;101694.00;;;22.95;44.80
62600;BME280;48671;48.922;2.346;2023-07-13T06:44:37;101690.31;;;22.85;44.86
62600;BME280;48671;48.922;2.346;2023-07-13T06:47:03;101694.31;;;22.90;44.64
62600;BME280;48671;48.922;2.346;2023-07-13T06:49:28;101694.13;;;22.94;44.79
62600;BME280;48671;48.922;2.346;2023-07-13T06:51:54;101690.50;;;22.95;44.51
62600;BME280;48671;48.922;2.346;2023-07-13T06:54:19;101694.97;;;22.94;44.95
62600;BME280;48671;48.922;2.346;2023-07-13T06:56:44;101691.84;;;23.00;45.01
62600;BME280;48671;48.922;2.346;2023-07-13T06:59:10;101688.00;;;23.04;44.83
62600;BME280;48671;48.922;2.346;2023-07-13T07:01:35;101694.16;;;23.05;45.20
62600;BME280;48671;48.922;2.346;2023-07-13T07:04:00;101699.22;;;22.97;45.55
62600;BME280;48671;48.922;2.346;2023-07-13T07:06:26;101698.22;;;22.98;44.13
62600;BME280;48671;48.922;2.346;2023-07-13T07:08:52;101704.28;;;23.00;44.55
62600;BME280;48671;48.922;2.346;2023-07-13T07:11:20;101703.09;;;23.04;44.97
62600;BME280;48671;48.922;2.346;2023-07-13T07:13:47;101702.72;;;23.08;45.23
62600;BME280;48671;48.922;2.346;2023-07-13T07:16:13;101704.81;;;23.16;44.77
62600;BME280;48671;48.922;2.346;2023-07-13T07:18:38;101717.03;;;23.30;44.79
62600;BME280;48671;48.922;2.346;2023-07-13T07:21:04;101704.72;;;23.40;44.50
62600;BME280;48671;48.922;2.346;2023-07-13T07:23:29;101709.47;;;23.59;44.29
62600;BME280;48671;48.922;2.346;2023-07-13T07:25:55;101718.91;;;23.86;43.88
62600;BME280;48671;48.922;2.346;2023-07-13T07:28:20;101710.69;;;24.00;43.70
62600;BME280;48671;48.922;2.346;2023-07-13T07:30:47;101721.31;;;24.11;43.36
62600;BME280;48671;48.922;2.346;2023-07-13T07:33:13;101709.59;;;24.14;43.36
62600;BME280;48671;48.922;2.346;2023-07-13T07:35:38;101716.94;;;24.21;43.97
62600;BME280;48671;48.922;2.346;2023-07-13T07:38:04;101715.72;;;24.25;43.24
62600;BME280;48671;48.922;2.346;2023-07-13T07:40:29;101713.56;;;24.30;42.82
62600;BME280;48671;48.922;2.346;2023-07-13T07:42:55;101723.81;;;24.35;43.25
62600;BME280;48671;48.922;2.346;2023-07-13T07:45:21;101722.72;;;24.49;43.08
62600;BME280;48671;48.922;2.346;2023-07-13T07:47:46;101723.19;;;24.54;43.34
62600;BME280;48671;48.922;2.346;2023-07-13T07:50:12;101728.13;;;24.59;43.03
62600;BME280;48671;48.922;2.346;2023-07-13T07:52:37;101720.28;;;24.57;42.91
62600;BME280;48671;48.922;2.346;2023-07-13T07:55:04;101730.19;;;24.66;42.95
62600;BME280;48671;48.922;2.346;2023-07-13T07:57:29;101728.34;;;24.67;42.81
62600;BME280;48671;48.922;2.346;2023-07-13T07:59:55;101735.09;;;24.71;42.75
62600;BME280;48671;48.922;2.346;2023-07-13T08:02:20;101726.28;;;24.70;42.76
62600;BME280;48671;48.922;2.346;2023-07-13T08:04:45;101734.75;;;24.75;42.49
62600;BME280;48671;48.922;2.346;2023-07-13T08:07:11;101730.38;;;24.74;42.46
62600;BME280;48671;48.922;2.346;2023-07-13T08:09:36;101732.19;;;24.74;42.32
62600;BME280;48671;48.922;2.346;2023-07-13T08:12:01;101731.28;;;24.85;42.33
62600;BME280;48671;48.922;2.346;2023-07-13T08:14:27;101733.16;;;25.05;42.38
62600;BME280;48671;48.922;2.346;2023-07-13T08:16:52;101726.13;;;25.15;41.88
62600;BME280;48671;48.922;2.346;2023-07-13T08:19:18;101731.09;;;25.30;41.80
62600;BME280;48671;48.922;2.346;2023-07-13T08:21:44;101732.84;;;25.40;41.87
62600;BME280;48671;48.922;2.346;2023-07-13T08:24:09;101738.97;;;25.31;41.48
62600;BME280;48671;48.922;2.346;2023-07-13T08:26:35;101733.97;;;25.38;41.80
62600;BME280;48671;48.922;2.346;2023-07-13T08:29:00;101732.47;;;25.45;41.47
62600;BME280;48671;48.922;2.346;2023-07-13T08:31:25;101733.25;;;25.36;41.81
62600;BME280;48671;48.922;2.346;2023-07-13T08:33:51;101727.03;;;25.26;41.38
62600;BME280;48671;48.922;2.346;2023-07-13T08:36:16;101731.25;;;25.28;41.42
62600;BME280;48671;48.922;2.346;2023-07-13T08:38:41;101730.31;;;25.39;41.19
62600;BME280;48671;48.922;2.346;2023-07-13T08:41:13;101727.72;;;25.49;40.58
62600;BME280;48671;48.922;2.346;2023-07-13T08:43:39;101724.34;;;25.46;41.14
62600;BME280;48671;48.922;2.346;2023-07-13T08:46:25;101726.66;;;25.61;41.12
62600;BME280;48671;48.922;2.346;2023-07-13T08:48:58;101720.75;;;25.57;40.74
62600;BME280;48671;48.922;2.346;2023-07-13T08:54:02;101735.34;;;25.63;39.87
62600;BME280;48671;48.922;2.346;2023-07-13T08:56:31;101738.78;;;25.75;39.33
62600;BME280;48671;48.922;2.346;2023-07-13T08:59:14;101732.63;;;25.74;39.46
62600;BME280;48671;48.922;2.346;2023-07-13T09:04:59;101729.38;;;25.71;39.39
62600;BME280;48671;48.922;2.346;2023-07-13T09:07:50;101733.31;;;25.76;39.22
62600;BME280;48671;48.922;2.346;2023-07-13T09:10:30;101735.28;;;25.74;38.95
62600;BME280;48671;48.922;2.346;2023-07-13T09:13:19;101726.78;;;25.80;38.67
62600;BME280;48671;48.922;2.346;2023-07-13T09:15:49;101734.72;;;26.01;38.06
62600;BME280;48671;48.922;2.346;2023-07-13T09:20:56;101722.84;;;26.25;37.68
62600;BME280;48671;48.922;2.346;2023-07-13T09:23:24;101729.22;;;26.43;37.17
62600;BME280;48671;48.922;2.346;2023-07-13T09:26:00;101732.31;;;26.48;36.94
62600;BME280;48671;48.922;2.346;2023-07-13T09:28:28;101721.06;;;26.45;35.21
62600;BME280;48671;48.922;2.346;2023-07-13T09:31:05;101725.97;;;26.30;35.72
62600;BME280;48671;48.922;2.346;2023-07-13T09:33:31;101721.72;;;26.18;35.84
62600;BME280;48671;48.922;2.346;2023-07-13T09:36:00;101720.28;;;26.04;36.08
62600;BME280;48671;48.922;2.346;2023-07-13T09:38:28;101735.28;;;26.05;36.97
62600;BME280;48671;48.922;2.346;2023-07-13T09:41:03;101731.44;;;25.88;35.52
62600;BME280;48671;48.922;2.346;2023-07-13T09:43:34;101728.50;;;25.70;36.28
62600;BME280;48671;48.922;2.346;2023-07-13T09:45:59;101732.44;;;25.66;36.59
62600;BME280;48671;48.922;2.346;2023-07-13T09:48:25;101740.56;;;25.64;37.05
62600;BME280;48671;48.922;2.346;2023-07-13T09:50:54;101740.31;;;25.67;37.35
62600;BME280;48671;48.922;2.346;2023-07-13T09:53:20;101736.47;;;25.60;37.17
62600;BME280;48671;48.922;2.346;2023-07-13T09:55:47;101740.38;;;25.56;36.98
62600;BME280;48671;48.922;2.346;2023-07-13T09:58:18;101746.75;;;25.44;37.28
62600;BME280;48671;48.922;2.346;2023-07-13T10:01:03;101752.63;;;25.38;37.26
62600;BME280;48671;48.922;2.346;2023-07-13T10:03:34;101746.97;;;25.31;37.05
62600;BME280;48671;48.922;2.346;2023-07-13T10:06:13;101755.47;;;25.25;37.54
62600;BME280;48671;48.922;2.346;2023-07-13T10:08:39;101742.75;;;25.29;37.90
62600;BME280;48671;48.922;2.346;2023-07-13T10:11:16;101752.47;;;25.39;37.48
62600;BME280;48671;48.922;2.346;2023-07-13T10:13:57;101762.69;;;25.55;37.24
62600;BME280;48671;48.922;2.346;2023-07-13T10:16:26;101753.59;;;25.58;37.12
62600;BME280;48671;48.922;2.346;2023-07-13T10:18:58;101754.00;;;25.63;37.48
62600;BME280;48671;48.922;2.346;2023-07-13T10:21:28;101756.56;;;25.64;36.91
62600;BME280;48671;48.922;2.346;2023-07-13T10:24:02;101763.84;;;25.62;37.10
62600;BME280;48671;48.922;2.346;2023-07-13T10:26:32;101768.59;;;25.59;37.00
62600;BME280;48671;48.922;2.346;2023-07-13T10:29:03;101758.72;;;25.50;37.25
62600;BME280;48671;48.922;2.346;2023-07-13T10:31:32;101773.53;;;25.42;37.23
62600;BME280;48671;48.922;2.346;2023-07-13T10:33:59;101767.47;;;25.40;37.44
62600;BME280;48671;48.922;2.346;2023-07-13T10:36:32;101774.06;;;25.36;37.28
62600;BME280;48671;48.922;2.346;2023-07-13T10:39:01;101773.22;;;25.36;37.61
62600;BME280;48671;48.922;2.346;2023-07-13T10:41:31;101780.16;;;25.27;37.90
62600;BME280;48671;48.922;2.346;2023-07-13T10:43:59;101775.72;;;25.16;38.07
62600;BME280;48671;48.922;2.346;2023-07-13T10:46:27;101782.88;;;25.16;38.10
62600;BME280;48671;48.922;2.346;2023-07-13T10:48:59;101781.19;;;25.15;38.22
62600;BME280;48671;48.922;2.346;2023-07-13T10:51:27;101779.81;;;25.20;37.71
62600;BME280;48671;48.922;2.346;2023-07-13T10:56:39;101783.34;;;25.42;37.53
62600;BME280;48671;48.922;2.346;2023-07-13T10:59:31;101780.34;;;25.56;37.32
62600;BME280;48671;48.922;2.346;2023-07-13T11:02:26;101783.69;;;25.49;37.30
62600;BME280;48671;48.922;2.346;2023-07-13T11:04:54;101781.53;;;25.42;37.75
62600;BME280;48671;48.922;2.346;2023-07-13T11:09:52;101773.34;;;25.34;38.20
62600;BME280;48671;48.922;2.346;2023-07-13T11:22:52;101776.34;;;25.41;38.00
62600;BME280;48671;48.922;2.346;2023-07-13T11:28:04;101765.00;;;25.69;37.90
62600;BME280;48671;48.922;2.346;2023-07-13T11:35:36;101754.44;;;26.20;37.40
62600;BME280;48671;48.922;2.346;2023-07-13T11:38:12;101758.81;;;26.30;36.33
62600;BME280;48671;48.922;2.346;2023-07-13T11:40:39;101754.31;;;26.31;35.51
62600;BME280;48671;48.922;2.346;2023-07-13T11:43:06;101742.94;;;26.29;36.33
62600;BME280;48671;48.922;2.346;2023-07-13T11:45:32;101747.03;;;26.33;36.01
62600;BME280;48671;48.922;2.346;2023-07-13T11:47:57;101734.88;;;26.59;35.60
62600;BME280;48671;48.922;2.346;2023-07-13T11:50:25;101729.41;;;26.71;35.81
62600;BME280;48671;48.922;2.346;2023-07-13T11:52:52;101728.56;;;26.80;34.67
62600;BME280;48671;48.922;2.346;2023-07-13T11:55:21;101730.94;;;26.83;34.88
62600;BME280;48671;48.922;2.346;2023-07-13T11:58:05;101736.72;;;26.78;34.62
62600;BME280;48671;48.922;2.346;2023-07-13T12:00:32;101734.88;;;26.69;34.66
62600;BME280;48671;48.922;2.346;2023-07-13T12:03:00;101731.09;;;26.72;34.73
62600;BME280;48671;48.922;2.346;2023-07-13T12:05:27;101720.28;;;26.73;34.53
62600;BME280;48671;48.922;2.346;2023-07-13T12:07:54;101730.94;;;26.83;34.07
62600;BME280;48671;48.922;2.346;2023-07-13T12:10:26;101724.22;;;26.98;33.58
62600;BME280;48671;48.922;2.346;2023-07-13T12:15:20;101722.50;;;27.26;32.71
62600;BME280;48671;48.922;2.346;2023-07-13T12:17:48;101719.03;;;27.63;33.00
62600;BME280;48671;48.922;2.346;2023-07-13T12:20:35;101724.72;;;27.88;32.39
62600;BME280;48671;48.922;2.346;2023-07-13T12:23:05;101715.81;;;27.97;32.50
62600;BME280;48671;48.922;2.346;2023-07-13T12:25:31;101711.38;;;28.06;32.19
62600;BME280;48671;48.922;2.346;2023-07-13T12:27:57;101699.34;;;28.19;32.12
62600;BME280;48671;48.922;2.346;2023-07-13T12:33:11;101700.63;;;28.15;31.67
62600;BME280;48671;48.922;2.346;2023-07-13T12:35:50;101707.06;;;27.95;30.04
62600;BME280;48671;48.922;2.346;2023-07-13T12:38:17;101701.78;;;27.75;31.21
62600;BME280;48671;48.922;2.346;2023-07-13T12:40:49;101702.00;;;27.64;30.74
62600;BME280;48671;48.922;2.346;2023-07-13T12:43:16;101709.22;;;27.54;29.34
62600;BME280;48671;48.922;2.346;2023-07-13T12:45:59;101708.41;;;27.44;29.12
62600;BME280;48671;48.922;2.346;2023-07-13T12:48:25;101706.84;;;27.41;28.10
62600;BME280;48671;48.922;2.346;2023-07-13T12:50:53;101708.41;;;27.44;29.18
62600;BME280;48671;48.922;2.346;2023-07-13T12:53:23;101703.72;;;27.46;29.81
62600;BME280;48671;48.922;2.346;2023-07-13T12:55:53;101709.88;;;27.56;28.62
62600;BME280;48671;48.922;2.346;2023-07-13T12:58:40;101706.22;;;27.67;28.57
62600;BME280;48671;48.922;2.346;2023-07-13T13:01:10;101702.63;;;27.76;28.61
62600;BME280;48671;48.922;2.346;2023-07-13T13:03:40;101706.25;;;27.94;28.14
62600;BME280;48671;48.922;2.346;2023-07-13T13:08:40;101699.03;;;28.22;29.42
62600;BME280;48671;48.922;2.346;2023-07-13T13:11:08;101688.81;;;28.36;28.85
62600;BME280;48671;48.922;2.346;2023-07-13T13:13:34;101690.75;;;28.43;28.44
62600;BME280;48671;48.922;2.346;2023-07-13T13:16:23;101694.88;;;28.56;28.12
62600;BME280;48671;48.922;2.346;2023-07-13T13:18:53;101694.50;;;28.51;27.22
62600;BME280;48671;48.922;2.346;2023-07-13T13:21:20;101694.34;;;28.70;27.41
62600;BME280;48671;48.922;2.346;2023-07-13T13:23:46;101689.31;;;28.93;28.17
62600;BME280;48671;48.922;2.346;2023-07-13T13:26:13;101692.53;;;28.97;27.39
62600;BME280;48671;48.922;2.346;2023-07-13T13:28:39;101693.84;;;28.92;27.58
62600;BME280;48671;48.922;2.346;2023-07-13T13:31:05;101692.31;;;29.08;27.00